Terminal Aerodrome Forecast
Issued by NWS

Home | Current Version | Previous Version | Text Only | Print | Product List | Glossary On
Versions: 1 2 3 4 5 6 7 8 9 10 11 12 13 14 15 16 17 18 19 20 21 22 23 24
184
FTUS41 KGYX 230336 AAB
TAFHIE
TAF AMD
KHIE 230336Z 2304/2324 00000KT P6SM SCT025 BKN100
      TEMPO 2304/2307 -SHRA BKN025 OVC080
     FM230900 23005KT 2SM BR OVC005
     FM231400 26009G18KT P6SM BKN045=

USA.gov is the U.S. government's official web portal to all federal, state and local government web resources and services.